ENFB

Oslo, Fornebu Airport

Oslo, Norway
METAR ENFB 251920Z AUTO 20046KT 3700NDV -RA BR BKN007/// 10/09 Q1007 W///S5
Observed Flight Rules
Sep-25 @ 19:20 UTC (24 minutes ago)
Wind Clouds Conditions
200° at 46 knots
  • Broken at 700' AGL
  • Light Rain
  • Mist
Temperatures Readings
Current 10°C / 50°F
Dewpoint 9°C / 48°F
Humidity 94%
Altimeter 29.73" Hg
Pressure 1007 hPa
Elevation 10
METAR ENFB 251920Z AUTO 20046KT 3700NDV -RA BR BKN007/// 10/09 Q1007 W///S5
Observed Flight Rules
Sep-25 @ 19:20 UTC
(24 minutes ago)
Wind
200° at 46 knots
Clouds
  • Broken at 700' AGL
Conditions
  • Light Rain
  • Mist
Temperature Dewpoint
10°C / 50°F 9°C / 48°F
Humidity Altimeter Pressure
94% 29.73" Hg 1007 hPa